Time;durP1;ratioP1;P1;durP2;ratioP2;P2;SDS_P1;SDS_P2;PMS_P1;PMS_P2;Temp;Humidity;BMP_temperature;BMP_pressure;BME280_temperature;BME280_humidity;BME280_pressure;Samples;Min_cycle;Max_cycle;Signal;HPM_P1;HPM_P2
2023/03/06 00:00:00;;;;;;;14.43;9.10;;;;;;;5.11;100.00;100870.97;2079418;28;20199;-64
2023/03/06 00:01:04;;;;;;;12.87;8.80;;;;;;;5.45;100.00;100915.38;2082770;28;20207;-64
2023/03/06 00:02:05;;;;;;;13.45;9.82;;;;;;;5.50;100.00;100921.28;2075492;28;20187;-64
2023/03/06 00:03:06;;;;;;;11.73;9.03;;;;;;;5.49;100.00;100921.66;2077479;28;20196;-64
2023/03/06 00:04:07;;;;;;;12.83;8.93;;;;;;;4.67;100.00;100790.06;2079993;28;20434;-64
2023/03/06 00:05:07;;;;;;;15.90;9.40;;;;;;;5.43;100.00;100915.00;2077120;28;20198;-64
2023/03/06 00:06:08;;;;;;;13.73;9.40;;;;;;;5.49;100.00;100922.44;2073455;28;20661;-64
2023/03/06 00:07:08;;;;;;;11.67;8.90;;;;;;;5.47;100.00;100915.75;2080342;28;20523;-64
2023/03/06 00:08:09;;;;;;;14.10;9.33;;;;;;;5.00;100.00;100864.66;2077368;28;20197;-64
2023/03/06 00:09:10;;;;;;;11.57;8.40;;;;;;;5.37;100.00;100908.28;2075773;28;20636;-64
2023/03/06 00:10:19;;;;;;;11.60;8.97;;;;;;;5.44;100.00;100922.06;2075404;28;20270;-64
2023/03/06 00:11:20;;;;;;;13.18;8.95;;;;;;;5.36;100.00;100925.94;2073312;28;20227;-64
2023/03/06 00:12:20;;;;;;;13.37;9.60;;;;;;;5.37;100.00;100920.06;2075438;28;20193;-64
2023/03/06 00:13:21;;;;;;;13.27;8.50;;;;;;;4.97;100.00;100864.66;2078607;28;20188;-64
2023/03/06 00:14:21;;;;;;;11.87;8.60;;;;;;;4.84;100.00;100842.25;2081477;28;20569;-64
2023/03/06 00:15:23;;;;;;;10.77;8.30;;;;;;;5.33;100.00;100926.75;2075812;28;20193;-63
2023/03/06 00:16:24;;;;;;;12.60;8.57;;;;;;;5.34;100.00;100928.31;2078291;28;20249;-64
2023/03/06 00:17:26;;;;;;;14.90;8.82;;;;;;;5.00;100.00;100878.38;2078534;28;20188;-64
2023/03/06 00:18:27;;;;;;;11.68;8.70;;;;;;;5.30;100.00;100909.06;2079415;28;20224;-64
2023/03/06 00:19:27;;;;;;;11.90;8.73;;;;;;;5.41;100.00;100920.06;2085079;28;20188;-64
2023/03/06 00:20:28;;;;;;;11.50;8.97;;;;;;;5.39;100.00;100919.69;2084835;28;20213;-64
2023/03/06 00:21:28;;;;;;;12.17;9.10;;;;;;;5.39;100.00;100930.69;2081007;28;20690;-64
2023/03/06 00:22:28;;;;;;;13.07;9.10;;;;;;;5.39;100.00;100925.19;2081129;28;20179;-64
2023/03/06 00:23:29;;;;;;;12.03;8.23;;;;;;;5.42;99.94;100910.66;2074605;28;20196;-64
2023/03/06 00:24:30;;;;;;;12.47;8.93;;;;;;;5.43;99.65;100936.97;2079219;28;20194;-64
2023/03/06 00:25:30;;;;;;;10.93;8.07;;;;;;;5.01;99.32;100862.69;2077530;28;20199;-64
2023/03/06 00:26:32;;;;;;;11.90;8.57;;;;;;;5.44;99.69;100925.56;2078510;28;20204;-64
2023/03/06 00:27:33;;;;;;;13.80;8.98;;;;;;;5.39;99.15;100916.94;2080457;28;20226;-64
2023/03/06 00:28:34;;;;;;;12.13;8.50;;;;;;;5.39;99.74;100923.19;2080550;28;20181;-64
2023/03/06 00:29:35;;;;;;;13.50;8.93;;;;;;;5.43;99.75;100920.50;2072427;28;20189;-64
2023/03/06 00:30:35;;;;;;;13.47;8.17;;;;;;;5.46;99.39;100920.50;2073048;28;20184;-64
2023/03/06 00:31:35;;;;;;;11.40;8.23;;;;;;;5.45;98.50;100921.66;2073633;28;20178;-64
2023/03/06 00:32:36;;;;;;;12.47;8.43;;;;;;;5.44;98.53;100920.06;2077461;28;20671;-64
2023/03/06 00:33:36;;;;;;;10.93;7.80;;;;;;;5.49;98.35;100916.16;2079646;28;20227;-64
2023/03/06 00:34:37;;;;;;;10.97;7.60;;;;;;;5.22;98.35;100873.72;2081389;28;20196;-64
2023/03/06 00:35:38;;;;;;;11.00;8.07;;;;;;;5.41;97.36;100903.59;2078362;28;20777;-64
2023/03/06 00:36:39;;;;;;;10.40;7.57;;;;;;;5.21;97.70;100894.91;2078757;28;20196;-64
2023/03/06 00:37:40;;;;;;;10.67;7.87;;;;;;;5.07;97.69;100897.63;2080957;28;20185;-64
2023/03/06 00:38:40;;;;;;;11.82;7.95;;;;;;;4.83;97.71;100845.38;2080966;28;20204;-64
2023/03/06 00:39:41;;;;;;;12.27;8.97;;;;;;;5.33;97.63;100919.28;2072790;28;20182;-64
2023/03/06 00:40:41;;;;;;;11.90;8.37;;;;;;;5.28;97.72;100905.16;2080014;28;20749;-64
2023/03/06 00:41:42;;;;;;;10.27;8.00;;;;;;;5.37;97.87;100916.53;2081403;28;20608;-64
2023/03/06 00:42:43;;;;;;;10.07;7.77;;;;;;;5.39;97.58;100917.72;2078747;28;20207;-64
2023/03/06 00:43:43;;;;;;;11.07;8.00;;;;;;;5.24;97.29;100890.59;2079645;28;20196;-64
2023/03/06 00:44:44;;;;;;;11.03;7.30;;;;;;;5.11;96.84;100884.69;2080169;28;20803;-64
2023/03/06 00:45:45;;;;;;;11.07;7.70;;;;;;;5.37;95.99;100908.28;2075411;28;20185;-64
2023/03/06 00:46:45;;;;;;;12.13;7.33;;;;;;;5.39;95.79;100916.94;2080912;28;20176;-64
2023/03/06 00:47:45;;;;;;;11.00;7.80;;;;;;;5.35;95.63;100921.63;2081228;28;20243;-64
2023/03/06 00:48:46;;;;;;;9.73;7.33;;;;;;;4.47;96.15;100780.56;2076455;28;20193;-64
2023/03/06 00:49:46;;;;;;;9.93;7.20;;;;;;;5.31;96.03;100913.38;2081166;28;20208;-64
2023/03/06 00:50:47;;;;;;;11.60;7.60;;;;;;;5.33;95.89;100904.75;2075009;28;20208;-64
2023/03/06 00:51:47;;;;;;;9.50;7.43;;;;;;;5.20;95.36;100911.78;2073171;28;20220;-64
2023/03/06 00:52:48;;;;;;;10.17;7.70;;;;;;;4.66;96.19;100824.16;2079871;28;20650;-64
2023/03/06 00:53:48;;;;;;;10.50;7.50;;;;;;;5.24;96.55;100918.84;2088431;28;20201;-64
2023/03/06 00:54:49;;;;;;;9.60;6.97;;;;;;;5.01;95.86;100881.91;2088873;28;20175;-64
2023/03/06 00:55:50;;;;;;;9.50;7.07;;;;;;;5.19;95.74;100916.47;2073482;28;20837;-63
2023/03/06 00:56:50;;;;;;;10.32;6.82;;;;;;;5.17;95.62;100916.09;2086006;28;20203;-63
2023/03/06 00:57:51;;;;;;;9.87;7.00;;;;;;;5.20;95.70;100909.84;2096313;28;20334;-64
2023/03/06 00:58:51;;;;;;;9.63;7.20;;;;;;;5.18;95.87;100912.16;2091920;28;20212;-64
2023/03/06 00:59:52;;;;;;;9.20;6.60;;;;;;;4.53;96.13;100826.47;2074178;28;20199;-64
2023/03/06 01:00:52;;;;;;;11.27;7.13;;;;;;;5.01;95.94;100890.94;2079937;28;20187;-64
2023/03/06 01:01:53;;;;;;;8.93;6.97;;;;;;;5.13;95.80;100914.53;2081391;28;20194;-64
2023/03/06 01:02:54;;;;;;;10.40;7.57;;;;;;;5.10;96.28;100918.84;2087251;28;20286;-64
2023/03/06 01:03:55;;;;;;;9.80;7.03;;;;;;;4.76;96.86;100875.56;2095598;28;20198;-64
2023/03/06 01:04:56;;;;;;;9.83;6.90;;;;;;;5.07;97.16;100914.09;2096037;28;20226;-64
2023/03/06 01:05:57;;;;;;;9.80;7.00;;;;;;;5.16;96.92;100927.47;2088251;28;20658;-64
2023/03/06 01:06:57;;;;;;;9.87;7.00;;;;;;;5.19;96.55;100912.97;2088720;28;21018;-64
2023/03/06 01:07:58;;;;;;;9.93;6.70;;;;;;;5.20;96.50;100920.03;2081324;28;20228;-64
2023/03/06 01:08:58;;;;;;;9.60;6.77;;;;;;;5.07;96.58;100905.09;2087246;28;20234;-64
2023/03/06 01:09:59;;;;;;;10.57;7.00;;;;;;;5.08;96.85;100907.44;2088548;28;20209;-64
2023/03/06 01:10:59;;;;;;;9.60;6.80;;;;;;;5.10;97.44;100916.09;2084215;28;20612;-64
2023/03/06 01:12:00;;;;;;;10.90;6.90;;;;;;;5.01;96.80;100892.88;2080111;28;20231;-64
2023/03/06 01:13:00;;;;;;;12.53;7.30;;;;;;;5.01;96.86;100896.44;2081213;28;20184;-64
2023/03/06 01:14:00;;;;;;;12.60;7.23;;;;;;;5.09;97.24;100910.97;2089047;28;20609;-64
2023/03/06 01:15:01;;;;;;;9.43;6.40;;;;;;;5.18;97.07;100917.66;2075935;28;20220;-64
2023/03/06 01:16:17;;;;;;;8.87;6.83;;;;;;;5.20;96.54;100923.56;2081872;28;20260;-64
2023/03/06 01:17:17;;;;;;;10.30;6.85;;;;;;;5.11;97.17;100912.16;2088690;28;20623;-64
2023/03/06 01:18:18;;;;;;;11.27;6.43;;;;;;;4.33;97.01;100797.78;2088285;28;20196;-64
2023/03/06 01:19:18;;;;;;;9.63;7.00;;;;;;;4.23;97.50;100803.22;2088339;28;20211;-64
2023/03/06 01:20:19;;;;;;;11.57;7.17;;;;;;;4.98;97.63;100912.91;2087955;28;20295;-64
2023/03/06 01:21:19;;;;;;;9.67;6.50;;;;;;;5.02;98.37;100916.47;2096772;28;20179;-64
2023/03/06 01:22:20;;;;;;;9.03;6.10;;;;;;;5.05;98.54;100915.66;2080601;28;20576;-64
2023/03/06 01:23:20;;;;;;;8.07;6.40;;;;;;;5.02;98.42;100919.22;2079374;28;20230;-64
2023/03/06 01:24:22;;;;;;;8.87;6.63;;;;;;;5.06;98.49;100919.97;2077280;28;20204;-64
2023/03/06 01:25:24;;;;;;;10.38;6.80;;;;;;;5.10;98.15;100915.28;2075587;28;20176;-64
2023/03/06 01:26:24;;;;;;;9.23;5.95;;;;;;;5.07;98.65;100918.84;2087903;28;20584;-64
2023/03/06 01:27:25;;;;;;;11.17;6.30;;;;;;;5.07;98.67;100914.09;2081478;28;20176;-64
2023/03/06 01:28:26;;;;;;;11.40;6.80;;;;;;;4.99;98.60;100895.25;2080419;28;20192;-64
2023/03/06 01:29:27;;;;;;;8.97;6.57;;;;;;;5.07;98.49;100921.56;2075042;28;20713;-63
2023/03/06 01:30:28;;;;;;;9.30;6.22;;;;;;;5.06;98.27;100926.28;2075826;28;20282;-63
2023/03/06 01:31:28;;;;;;;8.83;6.50;;;;;;;4.54;98.50;100860.97;2081047;28;20189;-64
2023/03/06 01:32:30;;;;;;;8.03;5.93;;;;;;;5.00;98.35;100929.78;2079912;28;20552;-63
2023/03/06 01:33:31;;;;;;;9.45;6.32;;;;;;;5.06;98.19;100926.28;2072768;28;20184;-64
2023/03/06 01:34:31;;;;;;;8.23;5.53;;;;;;;5.00;98.19;100927.81;2080586;28;20271;-63
2023/03/06 01:35:31;;;;;;;7.77;6.33;;;;;;;4.91;98.39;100910.13;2073332;28;20686;-64
2023/03/06 01:36:32;;;;;;;9.80;6.20;;;;;;;4.90;99.00;100925.03;2078952;28;20611;-65
2023/03/06 01:37:35;;;;;;;8.67;6.13;;;;;;;4.92;99.26;100925.44;2076253;28;20569;-64
2023/03/06 01:38:35;;;;;;;11.00;6.30;;;;;;;4.91;99.52;100924.66;2076804;28;20752;-64
2023/03/06 01:39:35;;;;;;;9.67;6.03;;;;;;;4.85;98.96;100898.75;2078276;28;20615;-63
2023/03/06 01:40:37;;;;;;;10.37;6.53;;;;;;;5.03;98.52;100923.53;2074712;28;20578;-64
2023/03/06 01:41:37;;;;;;;8.35;6.30;;;;;;;5.01;98.93;100923.09;2080699;28;20261;-64
2023/03/06 01:42:38;;;;;;;8.90;6.37;;;;;;;5.00;99.08;100925.09;2073169;28;20184;-64
2023/03/06 01:43:41;;;;;;;8.90;6.03;;;;;;;5.05;98.80;100924.72;2080609;28;20698;-64
2023/03/06 01:45:03;;;;;;;8.77;6.20;;;;;;;5.10;98.48;100920.78;2080967;28;20187;-64
2023/03/06 01:46:29;;;;;;;8.88;6.18;;;;;;;4.97;99.05;100925.84;2072928;28;20188;-64
2023/03/06 01:47:29;;;;;;;8.32;6.10;;;;;;;4.54;98.80;100858.22;2074217;28;20184;-64
2023/03/06 01:48:30;;;;;;;8.73;5.77;;;;;;;5.02;98.67;100921.94;2080602;28;20641;-64
2023/03/06 01:49:35;;;;;;;8.20;5.73;;;;;;;5.01;98.61;100926.66;2073014;28;20169;-64
2023/03/06 01:50:36;;;;;;;8.63;6.45;;;;;;;5.03;98.25;100918.78;2072634;28;20173;-64
2023/03/06 01:51:52;;;;;;;8.93;6.20;;;;;;;5.07;98.50;100927.06;2079989;28;20227;-64
2023/03/06 01:52:57;;;;;;;9.20;6.15;;;;;;;5.07;98.36;100913.34;2072668;28;20290;-64
2023/03/06 01:54:02;;;;;;;10.85;5.80;;;;;;;5.02;97.94;100917.22;2072615;28;20251;-64
2023/03/06 01:55:09;;;;;;;8.68;6.07;;;;;;;4.37;98.25;100822.47;2079758;28;20184;-64
2023/03/06 01:56:12;;;;;;;11.27;6.38;;;;;;;5.01;98.13;100921.16;2081141;28;20191;-64
2023/03/06 01:57:21;;;;;;;7.30;5.72;;;;;;;5.10;97.56;100918.84;2075055;28;20640;-64
2023/03/06 01:58:21;;;;;;;7.78;5.60;;;;;;;5.11;97.54;100928.66;2072645;28;20288;-64
2023/03/06 01:59:23;;;;;;;8.20;5.90;;;;;;;4.19;97.01;100784.00;2077412;28;20345;-64
2023/03/06 02:00:26;;;;;;;7.55;5.65;;;;;;;4.63;96.94;100858.66;2080374;28;20619;-63
2023/03/06 02:01:28;;;;;;;8.85;5.75;;;;;;;4.70;96.68;100849.66;2077971;28;20573;-64
2023/03/06 02:02:29;;;;;;;8.93;6.50;;;;;;;5.12;96.45;100910.22;2072739;28;20185;-64
2023/03/06 02:03:30;;;;;;;7.57;5.77;;;;;;;5.14;95.67;100919.63;2073406;28;20182;-64
2023/03/06 02:04:32;;;;;;;7.75;5.97;;;;;;;5.22;95.69;100923.97;2081107;28;20203;-64
2023/03/06 02:05:33;;;;;;;8.18;6.38;;;;;;;5.21;95.50;100927.91;2080304;28;20188;-63
2023/03/06 02:06:36;;;;;;;9.50;5.95;;;;;;;5.20;95.77;100920.03;2087480;28;20304;-64
2023/03/06 02:07:39;;;;;;;7.90;5.35;;;;;;;4.90;95.44;100879.16;2074407;28;20192;-64
2023/03/06 02:08:39;;;;;;;7.05;5.30;;;;;;;4.45;94.85;100807.59;2078259;28;20605;-64
2023/03/06 02:09:39;;;;;;;8.20;5.80;;;;;;;5.06;95.58;100923.53;2080825;28;20192;-64
2023/03/06 02:10:55;;;;;;;9.17;6.00;;;;;;;4.82;95.92;100902.25;2085147;28;20685;-64
2023/03/06 02:11:56;;;;;;;9.55;6.05;;;;;;;4.62;95.79;100845.31;2080943;28;20617;-64
2023/03/06 02:12:57;;;;;;;8.93;6.20;;;;;;;5.18;96.31;100931.41;2080758;28;20203;-64
2023/03/06 02:13:57;;;;;;;17.67;7.20;;;;;;;5.13;96.50;100934.53;2080590;28;20196;-64
2023/03/06 02:14:58;;;;;;;19.87;6.97;;;;;;;4.75;96.95;100883.00;2080752;28;20188;-64
2023/03/06 02:15:59;;;;;;;11.57;7.07;;;;;;;5.11;97.02;100936.09;2081004;28;20177;-64
2023/03/06 02:16:59;;;;;;;11.60;7.37;;;;;;;4.80;96.65;100896.38;2080861;28;20231;-64
2023/03/06 02:18:00;;;;;;;9.33;6.80;;;;;;;5.16;96.59;100938.47;2080954;28;20191;-64
2023/03/06 02:19:03;;;;;;;10.33;7.63;;;;;;;5.15;97.09;100942.38;2080698;28;20215;-64
2023/03/06 02:20:12;;;;;;;12.15;8.30;;;;;;;5.10;96.98;100942.75;2075840;28;20201;-64
2023/03/06 02:21:23;;;;;;;11.68;7.88;;;;;;;4.61;97.76;100890.41;2077382;28;20574;-64
2023/03/06 02:22:28;;;;;;;13.63;8.63;;;;;;;4.98;97.90;100941.16;2080571;28;20196;-64
2023/03/06 02:23:38;;;;;;;11.00;8.20;;;;;;;4.53;98.15;100888.81;2076101;28;20267;-64
2023/03/06 02:25:02;;;;;;;11.38;8.00;;;;;;;4.96;98.53;100948.19;2072794;28;20197;-64
2023/03/06 02:26:05;;;;;;;13.20;8.45;;;;;;;4.83;98.83;100944.22;2079352;28;20177;-64
2023/03/06 02:27:08;;;;;;;11.65;8.25;;;;;;;4.16;98.72;100844.31;2080594;28;20639;-64
2023/03/06 02:28:13;;;;;;;10.75;8.30;;;;;;;4.75;99.79;100948.09;2075469;28;20451;-64
2023/03/06 02:29:21;;;;;;;13.80;8.45;;;;;;;4.75;99.61;100953.59;2072392;28;20201;-64
2023/03/06 02:30:25;;;;;;;11.30;8.32;;;;;;;4.74;100.00;100955.56;2076548;28;20505;-64
2023/03/06 02:31:28;;;;;;;12.73;8.65;;;;;;;4.69;100.00;100949.66;2084426;28;20215;-64
2023/03/06 02:32:28;;;;;;;14.70;8.48;;;;;;;4.66;100.00;100945.72;2076984;28;20244;-64
2023/03/06 02:33:29;;;;;;;11.83;8.20;;;;;;;4.66;100.00;100942.19;2072260;28;20184;-64
2023/03/06 02:34:38;;;;;;;11.50;8.13;;;;;;;4.64;100.00;100947.28;2072367;28;20182;-64
2023/03/06 02:35:45;;;;;;;11.23;8.13;;;;;;;4.62;100.00;100949.63;2073114;28;20193;-64
2023/03/06 02:36:52;;;;;;;11.23;8.20;;;;;;;4.63;100.00;100940.22;2080116;28;20169;-64
2023/03/06 02:37:56;;;;;;;14.60;8.85;;;;;;;4.71;100.00;100952.78;2072686;28;20185;-64
2023/03/06 02:38:57;;;;;;;12.50;8.20;;;;;;;4.05;100.00;100893.63;2080887;28;20189;-64
2023/03/06 02:40:06;;;;;;;13.27;8.82;;;;;;;4.58;100.00;100948.81;2073011;28;20201;-64
2023/03/06 02:41:08;;;;;;;11.00;7.78;;;;;;;4.57;100.00;100952.72;2080220;28;20666;-64
2023/03/06 02:42:08;;;;;;;12.20;8.35;;;;;;;4.53;100.00;100952.72;2080742;28;20195;-64
2023/03/06 02:43:11;;;;;;;12.47;8.47;;;;;;;4.46;100.00;100951.88;2080382;28;20208;-64
2023/03/06 02:44:11;;;;;;;12.50;8.98;;;;;;;4.11;100.00;100888.56;2076013;28;20240;-64
2023/03/06 02:45:16;;;;;;;16.80;8.63;;;;;;;4.58;100.00;100955.09;2075976;28;20736;-64
2023/03/06 02:46:17;;;;;;;14.48;8.82;;;;;;;4.04;100.00;100905.75;2077562;28;20639;-64
2023/03/06 02:47:17;;;;;;;16.57;8.47;;;;;;;4.39;100.00;100954.56;2074317;28;20185;-64
2023/03/06 02:48:19;;;;;;;12.23;8.57;;;;;;;4.42;100.00;100951.06;2079972;28;20177;-64
2023/03/06 02:49:20;;;;;;;14.48;8.35;;;;;;;4.45;100.00;100970.31;2072572;28;20266;-64
2023/03/06 02:50:20;;;;;;;13.57;8.47;;;;;;;3.83;100.00;100869.97;2079818;28;20246;-64
2023/03/06 02:51:21;;;;;;;12.97;8.07;;;;;;;4.35;100.00;100951.81;2073853;28;20552;-64
2023/03/06 02:52:21;;;;;;;12.70;8.43;;;;;;;4.26;100.00;100951.34;2077952;28;20219;-64
2023/03/06 02:53:22;;;;;;;13.73;8.93;;;;;;;3.85;100.00;100905.22;2075957;28;20726;-64
2023/03/06 02:54:22;;;;;;;10.87;8.33;;;;;;;4.18;100.00;100955.22;2084614;28;20223;-64
2023/03/06 02:55:24;;;;;;;11.77;8.50;;;;;;;4.12;100.00;100955.97;2079461;28;20216;-64
2023/03/06 02:56:24;;;;;;;12.77;8.40;;;;;;;4.12;100.00;100955.97;2073299;28;20233;-64
2023/03/06 02:57:24;;;;;;;11.33;7.90;;;;;;;4.12;100.00;100951.28;2080145;28;20720;-64
2023/03/06 02:58:25;;;;;;;13.27;8.17;;;;;;;4.07;100.00;100961.78;2072198;28;20695;-64
2023/03/06 02:59:25;;;;;;;12.30;8.03;;;;;;;4.02;100.00;100967.63;2072442;28;20189;-64
2023/03/06 03:00:26;;;;;;;12.27;7.90;;;;;;;4.02;100.00;100949.25;2077461;28;20672;-64
2023/03/06 03:01:27;;;;;;;13.23;8.38;;;;;;;4.02;100.00;100956.66;2075714;28;20196;-64
2023/03/06 03:02:27;;;;;;;13.77;7.87;;;;;;;3.84;100.00;100925.59;2075911;28;20196;-64
2023/03/06 03:03:28;;;;;;;10.77;8.20;;;;;;;3.97;100.00;100946.06;2079795;28;20183;-64
2023/03/06 03:04:28;;;;;;;12.27;9.00;;;;;;;4.01;100.00;100952.34;2080141;28;20198;-64
2023/03/06 03:05:28;;;;;;;13.47;8.30;;;;;;;4.01;100.00;100952.34;2080146;28;20216;-64
2023/03/06 03:06:29;;;;;;;13.23;8.23;;;;;;;4.03;100.00;100950.81;2080838;28;20180;-63
2023/03/06 03:07:29;;;;;;;10.67;7.63;;;;;;;3.93;100.00;100945.22;2080133;28;20210;-64
2023/03/06 03:08:30;;;;;;;11.30;7.87;;;;;;;3.79;100.00;100915.75;2074548;28;20175;-64
2023/03/06 03:09:35;;;;;;;12.93;8.55;;;;;;;4.01;100.00;100949.63;2076928;28;20570;-64
2023/03/06 03:10:36;;;;;;;12.30;8.52;;;;;;;3.41;100.00;100855.13;2080436;28;20204;-64
2023/03/06 03:11:36;;;;;;;12.90;8.27;;;;;;;4.03;100.00;100950.81;2080158;28;20194;-64
2023/03/06 03:12:37;;;;;;;10.07;7.40;;;;;;;3.81;100.00;100921.66;2079834;28;20641;-64
2023/03/06 03:13:37;;;;;;;11.57;7.90;;;;;;;3.43;100.00;100855.53;2071761;28;20287;-64
2023/03/06 03:14:38;;;;;;;14.47;7.77;;;;;;;3.26;100.00;100840.53;2072710;28;20176;-64
2023/03/06 03:15:38;;;;;;;11.43;8.37;;;;;;;3.89;100.00;100933.44;2077371;28;20657;-64
2023/03/06 03:16:39;;;;;;;10.70;7.93;;;;;;;4.08;100.00;100958.69;2078995;28;20201;-64
2023/03/06 03:17:40;;;;;;;13.00;7.90;;;;;;;4.08;100.00;100958.69;2074739;28;20251;-64
2023/03/06 03:18:43;;;;;;;12.90;8.00;;;;;;;3.95;100.00;100935.47;2079553;28;20236;-64
2023/03/06 03:19:43;;;;;;;12.07;8.43;;;;;;;4.08;100.00;100955.13;2079900;28;20198;-64
2023/03/06 03:20:44;;;;;;;10.83;7.60;;;;;;;4.05;100.00;100959.44;2078411;28;20263;-64
2023/03/06 03:21:44;;;;;;;14.07;7.80;;;;;;;4.00;100.00;100948.03;2080331;28;20191;-64
2023/03/06 03:22:49;;;;;;;10.43;7.80;;;;;;;4.01;100.00;100946.88;2075241;28;20282;-64
2023/03/06 03:23:50;;;;;;;11.20;7.63;;;;;;;3.37;100.00;100870.75;2073891;28;20201;-64
2023/03/06 03:24:50;;;;;;;11.27;7.90;;;;;;;3.83;100.00;100924.00;2079960;28;20196;-64
2023/03/06 03:25:51;;;;;;;11.53;7.77;;;;;;;4.02;100.00;100962.16;2076381;28;20200;-64
2023/03/06 03:26:51;;;;;;;9.23;7.20;;;;;;;4.02;100.00;100967.63;2082588;28;20199;-64
2023/03/06 03:27:52;;;;;;;10.43;7.67;;;;;;;3.78;100.00;100938.06;2076023;28;20208;-64
2023/03/06 03:28:52;;;;;;;11.03;7.57;;;;;;;3.99;100.00;100958.22;2073127;28;20188;-64
2023/03/06 03:29:56;;;;;;;11.40;7.70;;;;;;;4.05;100.00;100958.66;2071781;28;20272;-64
2023/03/06 03:31:01;;;;;;;11.35;8.20;;;;;;;3.82;100.00;100936.94;2072640;28;20576;-64
2023/03/06 03:32:02;;;;;;;11.43;7.68;;;;;;;4.07;100.00;100962.59;2072997;28;20628;-64
2023/03/06 03:33:02;;;;;;;11.30;7.63;;;;;;;3.89;100.00;100936.19;2078116;28;20215;-63
2023/03/06 03:34:03;;;;;;;15.13;8.00;;;;;;;3.46;100.00;100869.28;2079947;28;20275;-64
2023/03/06 03:35:05;;;;;;;9.57;7.27;;;;;;;3.33;100.00;100859.00;2079938;28;20291;-64
2023/03/06 03:36:06;;;;;;;10.57;7.50;;;;;;;3.31;100.00;100869.53;2082082;28;20204;-64
2023/03/06 03:37:06;;;;;;;11.63;7.88;;;;;;;3.17;100.00;100856.50;2079346;28;20231;-64
2023/03/06 03:38:07;;;;;;;11.77;7.87;;;;;;;3.13;100.00;100831.03;2075896;28;20188;-64
2023/03/06 03:39:09;;;;;;;15.23;7.47;;;;;;;3.61;100.00;100922.25;2079902;28;20297;-64
2023/03/06 03:40:10;;;;;;;14.38;7.95;;;;;;;3.94;100.00;100958.56;2079870;28;20175;-64
2023/03/06 03:41:10;;;;;;;17.65;8.30;;;;;;;4.01;100.00;100974.28;2081164;28;20217;-64
2023/03/06 03:42:10;;;;;;;11.47;8.27;;;;;;;4.03;100.00;100971.94;2081625;28;20242;-64
2023/03/06 03:43:11;;;;;;;15.50;7.37;;;;;;;4.00;100.00;100972.72;2081577;28;20649;-63
2023/03/06 03:44:11;;;;;;;13.30;7.63;;;;;;;4.02;100.00;100968.44;2081804;28;20573;-64
2023/03/06 03:45:12;;;;;;;11.27;7.50;;;;;;;4.03;100.00;100974.69;2081673;28;20188;-64
2023/03/06 03:46:12;;;;;;;11.53;7.20;;;;;;;3.97;100.00;100967.97;2081636;28;20293;-64
2023/03/06 03:47:13;;;;;;;9.93;7.50;;;;;;;3.97;100.00;100977.00;2081588;28;20198;-64
2023/03/06 03:48:13;;;;;;;10.03;7.23;;;;;;;3.42;100.00;100895.84;2081453;28;20194;-64
2023/03/06 03:49:14;;;;;;;10.60;7.87;;;;;;;3.92;100.00;100969.13;2078382;28;20224;-64
2023/03/06 03:50:14;;;;;;;10.30;7.63;;;;;;;3.98;100.00;100977.78;2080118;28;20255;-64
2023/03/06 03:51:15;;;;;;;11.23;7.67;;;;;;;3.55;100.00;100930.00;2074200;28;20204;-64
2023/03/06 03:52:15;;;;;;;11.98;7.28;;;;;;;3.99;100.00;100971.94;2079729;28;20539;-64
2023/03/06 03:53:16;;;;;;;9.47;7.17;;;;;;;3.96;100.00;100974.63;2085377;28;20289;-64
2023/03/06 03:54:16;;;;;;;11.60;7.23;;;;;;;3.98;100.00;100981.31;2085851;28;20207;-64
2023/03/06 03:55:17;;;;;;;11.73;8.13;;;;;;;3.90;100.00;100979.66;2082145;28;20171;-64
2023/03/06 03:56:17;;;;;;;11.70;7.87;;;;;;;3.82;100.00;100983.53;2090390;28;20217;-64
2023/03/06 03:57:18;;;;;;;12.67;7.73;;;;;;;3.38;100.00;100911.47;2089281;28;20201;-64
2023/03/06 03:58:18;;;;;;;10.80;7.90;;;;;;;3.76;100.00;100971.34;2082779;28;20590;-64
2023/03/06 03:59:19;;;;;;;14.33;8.27;;;;;;;3.70;100.00;100974.81;2085329;28;20193;-64
2023/03/06 04:00:20;;;;;;;11.63;7.32;;;;;;;3.74;100.00;100986.59;2088703;28;20260;-64
2023/03/06 04:01:20;;;;;;;10.53;7.67;;;;;;;3.75;100.00;100982.69;2088604;28;20187;-63
2023/03/06 04:02:21;;;;;;;9.97;7.67;;;;;;;3.75;100.00;100974.47;2090049;28;20241;-64
2023/03/06 04:03:21;;;;;;;10.60;7.87;;;;;;;3.75;100.00;100975.22;2088930;28;20761;-64
2023/03/06 04:04:22;;;;;;;10.57;7.53;;;;;;;3.86;100.00;100973.38;2082684;28;20190;-64
2023/03/06 04:05:22;;;;;;;10.67;7.80;;;;;;;3.57;100.00;100924.97;2084955;28;20661;-64
2023/03/06 04:06:23;;;;;;;13.30;8.20;;;;;;;3.88;100.00;100971.06;2085952;28;20235;-64
2023/03/06 04:07:23;;;;;;;10.70;7.60;;;;;;;3.93;100.00;100978.13;2082213;28;20271;-64
2023/03/06 04:08:25;;;;;;;10.70;7.70;;;;;;;3.71;100.00;100941.53;2090090;28;20185;-64
2023/03/06 04:09:25;;;;;;;12.55;7.70;;;;;;;3.99;100.00;100971.13;2081669;28;20207;-64
2023/03/06 04:10:26;;;;;;;17.87;8.50;;;;;;;3.50;100.00;100897.47;2075039;28;20259;-64
2023/03/06 04:11:26;;;;;;;11.30;7.40;;;;;;;3.70;100.00;100928.22;2076901;28;20781;-64
2023/03/06 04:12:27;;;;;;;11.57;7.23;;;;;;;3.95;100.00;100975.81;2081033;28;20203;-64
2023/03/06 04:13:27;;;;;;;11.23;8.03;;;;;;;3.97;100.00;100977.00;2080386;28;20902;-64
2023/03/06 04:14:28;;;;;;;11.43;7.63;;;;;;;3.91;100.00;100969.50;2081879;28;20737;-64
2023/03/06 04:15:28;;;;;;;13.03;7.80;;;;;;;3.91;100.00;100983.22;2080880;28;20191;-64
2023/03/06 04:16:29;;;;;;;10.27;7.97;;;;;;;3.85;100.00;100965.53;2075669;28;20198;-64
2023/03/06 04:17:32;;;;;;;11.23;8.17;;;;;;;3.91;100.00;100978.50;2081004;28;20625;-64
2023/03/06 04:18:33;;;;;;;10.93;8.30;;;;;;;3.94;100.00;100976.97;2086033;28;20277;-64
2023/03/06 04:19:33;;;;;;;11.67;8.53;;;;;;;3.98;100.00;100984.06;2082214;28;20267;-64
2023/03/06 04:20:34;;;;;;;11.37;7.90;;;;;;;3.98;100.00;100986.00;2089619;28;20175;-64
2023/03/06 04:21:34;;;;;;;14.23;7.93;;;;;;;3.97;100.00;100981.69;2080883;28;20265;-64
2023/03/06 04:22:35;;;;;;;15.17;8.17;;;;;;;3.96;100.00;100989.13;2086806;28;20577;-64
2023/03/06 04:23:35;;;;;;;14.53;8.30;;;;;;;3.99;100.00;100991.13;2091824;28;20188;-64
2023/03/06 04:24:35;;;;;;;13.10;8.60;;;;;;;3.78;100.00;100963.53;2091063;28;20262;-64
2023/03/06 04:25:37;;;;;;;17.63;8.70;;;;;;;4.00;100.00;100992.69;2088348;28;20182;-64
2023/03/06 04:26:37;;;;;;;10.75;7.90;;;;;;;3.99;100.00;100987.56;2089881;28;20674;-64
2023/03/06 04:27:38;;;;;;;11.67;8.43;;;;;;;4.02;100.00;100993.13;2088988;28;20552;-64
2023/03/06 04:28:38;;;;;;;15.20;9.07;;;;;;;4.06;100.00;100993.13;2082972;28;20567;-64
2023/03/06 04:29:38;;;;;;;19.17;8.73;;;;;;;4.07;100.00;100997.44;2080999;28;20212;-64
2023/03/06 04:30:39;;;;;;;15.67;8.40;;;;;;;4.08;100.00;100988.06;2080524;28;20184;-64
2023/03/06 04:31:39;;;;;;;14.97;8.60;;;;;;;4.09;100.00;100987.69;2081621;28;20207;-64
2023/03/06 04:32:40;;;;;;;11.47;8.20;;;;;;;4.05;100.00;100984.09;2081869;28;20216;-64
2023/03/06 04:33:40;;;;;;;14.40;8.13;;;;;;;4.07;100.00;101005.69;2080992;28;20192;-64
2023/03/06 04:34:40;;;;;;;14.00;8.93;;;;;;;4.08;100.00;100982.56;2074926;28;20271;-64
2023/03/06 04:35:41;;;;;;;12.87;8.07;;;;;;;4.07;100.00;100984.53;2073267;28;20188;-64
2023/03/06 04:36:44;;;;;;;11.30;8.37;;;;;;;4.12;100.00;100981.44;2078004;28;20200;-64
2023/03/06 04:37:44;;;;;;;13.52;8.20;;;;;;;4.12;100.00;100989.69;2081459;28;20647;-64
2023/03/06 04:38:45;;;;;;;10.93;8.23;;;;;;;4.14;100.00;100978.28;2078987;28;20560;-63
2023/03/06 04:39:46;;;;;;;12.23;8.50;;;;;;;4.13;100.00;100988.50;2074797;28;20259;-64
2023/03/06 04:40:48;;;;;;;10.67;8.33;;;;;;;4.12;100.00;100986.13;2080821;28;20195;-64
2023/03/06 04:41:48;;;;;;;10.85;8.25;;;;;;;4.11;100.00;100987.31;2081875;28;20176;-64
2023/03/06 04:42:49;;;;;;;14.13;9.07;;;;;;;4.16;100.00;100990.47;2081390;28;20184;-63
2023/03/06 04:43:50;;;;;;;12.27;8.43;;;;;;;4.14;100.00;100990.06;2081515;28;20226;-63
2023/03/06 04:44:50;;;;;;;12.20;9.03;;;;;;;4.08;100.00;100982.56;2081363;28;20549;-63